Time;durP1;ratioP1;P1;durP2;ratioP2;P2;SDS_P1;SDS_P2;PMS_P1;PMS_P2;Temp;Humidity;BMP_temperature;BMP_pressure;BME280_temperature;BME280_humidity;BME280_pressure;Samples;Min_cycle;Max_cycle;Signal;HPM_P1;HPM_P2
2022/03/03 00:00:15;;;;;;;150.40;66.97;;;;;;;-2.03;68.45;100838.13;4991959;28;20040;-75
2022/03/03 00:02:56;;;;;;;149.65;68.72;;;;;;;-2.11;68.88;100839.19;4960265;28;20059;-75
2022/03/03 00:05:21;;;;;;;151.38;68.00;;;;;;;-2.14;69.18;100839.97;4992665;28;20042;-75
2022/03/03 00:07:48;;;;;;;154.65;67.80;;;;;;;-2.14;69.51;100841.94;4992433;28;20050;-74
2022/03/03 00:10:15;;;;;;;170.10;71.40;;;;;;;-2.16;69.85;100839.53;4976664;28;20030;-74
2022/03/03 00:12:40;;;;;;;148.80;71.75;;;;;;;-2.23;69.55;100847.81;4993574;28;20073;-74
2022/03/03 00:15:07;;;;;;;163.70;70.60;;;;;;;-2.24;69.67;100844.22;4992969;28;20022;-75
2022/03/03 00:17:33;;;;;;;150.95;68.82;;;;;;;-2.26;69.92;100834.63;4992819;28;20127;-75
2022/03/03 00:19:59;;;;;;;155.52;69.78;;;;;;;-2.28;69.99;100837.81;4994041;28;20030;-74
2022/03/03 00:22:25;;;;;;;152.52;70.32;;;;;;;-2.26;70.08;100832.63;4992422;28;20042;-74
2022/03/03 00:24:52;;;;;;;152.85;66.82;;;;;;;-2.26;70.09;100831.81;4993934;28;20396;-74
2022/03/03 00:27:19;;;;;;;162.75;66.70;;;;;;;-2.29;70.33;100829.81;4994031;28;20034;-75
2022/03/03 00:29:45;;;;;;;161.02;69.22;;;;;;;-2.35;70.48;100826.53;4993077;28;20464;-72
2022/03/03 00:32:10;;;;;;;157.45;69.03;;;;;;;-2.47;70.64;100809.25;4976328;28;20388;-74
2022/03/03 00:34:36;;;;;;;159.60;71.72;;;;;;;-2.41;70.61;100828.06;4992096;28;20030;-74
2022/03/03 00:37:04;;;;;;;164.07;71.43;;;;;;;-2.46;70.95;100822.00;4993363;28;20046;-72
2022/03/03 00:39:30;;;;;;;162.68;69.85;;;;;;;-2.52;71.44;100823.53;4992389;28;20031;-73
2022/03/03 00:41:56;;;;;;;158.18;68.90;;;;;;;-2.54;71.49;100823.91;4991257;28;20033;-74
2022/03/03 00:44:21;;;;;;;163.25;71.03;;;;;;;-2.57;71.68;100816.31;4991795;28;20562;-72
2022/03/03 00:46:47;;;;;;;153.20;72.97;;;;;;;-2.56;72.32;100822.66;4990804;28;20224;-74
2022/03/03 00:49:16;;;;;;;165.55;72.63;;;;;;;-2.52;71.86;100815.97;4991381;28;20038;-74
2022/03/03 00:51:44;;;;;;;160.95;69.63;;;;;;;-2.49;72.38;100818.00;4992109;28;20452;-73
2022/03/03 00:54:09;;;;;;;162.55;69.95;;;;;;;-2.45;72.46;100815.25;4992062;28;20073;-73
2022/03/03 00:56:35;;;;;;;165.45;70.65;;;;;;;-2.47;72.27;100812.84;4992523;28;20030;-74
2022/03/03 00:59:07;;;;;;;166.20;72.72;;;;;;;-2.47;72.56;100815.66;4993125;28;20027;-72
2022/03/03 01:01:35;;;;;;;164.95;71.88;;;;;;;-2.45;72.50;100818.03;4975921;28;20117;-74
2022/03/03 01:04:05;;;;;;;170.50;74.82;;;;;;;-2.50;71.91;100807.22;4991668;28;20027;-74
2022/03/03 01:06:32;;;;;;;167.95;76.78;;;;;;;-2.50;72.38;100823.94;4992147;28;20050;-75
2022/03/03 01:08:57;;;;;;;173.82;76.65;;;;;;;-2.52;72.53;100812.38;4993815;28;20062;-75
2022/03/03 01:11:23;;;;;;;167.95;76.88;;;;;;;-2.55;72.93;100804.75;4993590;28;20092;-74
2022/03/03 01:13:49;;;;;;;167.30;76.20;;;;;;;-2.51;73.49;100805.59;4992273;28;20058;-73
2022/03/03 01:16:15;;;;;;;183.32;76.85;;;;;;;-2.49;73.23;100804.06;4992276;28;20054;-75
2022/03/03 01:18:42;;;;;;;173.95;73.82;;;;;;;-2.48;73.88;100807.66;4992527;28;20484;-74
2022/03/03 01:21:08;;;;;;;166.30;78.45;;;;;;;-2.49;73.72;100806.03;4995934;28;20102;-73
2022/03/03 01:23:35;;;;;;;176.02;74.15;;;;;;;-2.48;73.79;100808.47;4995649;28;20030;-73
2022/03/03 01:26:07;;;;;;;184.38;77.65;;;;;;;-2.47;73.85;100812.84;4979519;28;20026;-74
2022/03/03 01:28:32;;;;;;;174.00;76.45;;;;;;;-2.47;73.49;100806.47;4979423;28;20133;-75
2022/03/03 01:30:59;;;;;;;176.13;77.05;;;;;;;-2.49;73.88;100798.47;4996957;28;20452;-75
2022/03/03 01:33:24;;;;;;;167.30;72.88;;;;;;;-2.43;74.24;100816.50;4996155;28;20522;-74
2022/03/03 01:35:51;;;;;;;155.57;69.65;;;;;;;-2.42;73.85;100809.75;4997537;28;20054;-74
2022/03/03 01:38:16;;;;;;;163.93;70.28;;;;;;;-2.38;73.53;100812.56;4995685;28;20526;-73
2022/03/03 01:40:41;;;;;;;180.98;74.47;;;;;;;-2.39;73.40;100814.53;4996469;28;20034;-75
2022/03/03 01:43:07;;;;;;;163.95;70.90;;;;;;;-2.39;73.82;100810.94;4995320;28;20042;-74
2022/03/03 01:45:33;;;;;;;164.82;73.63;;;;;;;-2.54;73.48;100784.06;4995578;28;20036;-73
2022/03/03 01:47:59;;;;;;;170.43;72.20;;;;;;;-2.39;73.37;100802.59;4995190;28;20082;-74
2022/03/03 01:50:25;;;;;;;170.38;74.85;;;;;;;-2.38;73.56;100796.63;4994442;28;20108;-74
2022/03/03 01:52:50;;;;;;;169.70;73.93;;;;;;;-2.39;73.12;100792.25;4963379;28;20418;-74
2022/03/03 01:55:16;;;;;;;170.00;75.07;;;;;;;-2.44;73.45;100784.22;4995651;28;20449;-74
2022/03/03 01:57:42;;;;;;;164.18;73.45;;;;;;;-2.44;nan;100787.00;4996425;28;20391;-74
2022/03/03 02:00:08;;;;;;;160.73;70.55;;;;;;;-2.53;73.11;100772.53;4963016;28;20495;-73
2022/03/03 02:02:34;;;;;;;159.63;71.38;;;;;;;-2.43;73.81;100785.00;4995478;28;20106;-74
2022/03/03 02:05:00;;;;;;;162.57;73.93;;;;;;;-2.44;73.36;100789.78;4996387;28;20258;-74
2022/03/03 02:07:27;;;;;;;168.60;74.07;;;;;;;-2.47;73.60;100784.97;5007661;28;20062;-74
2022/03/03 02:09:53;;;;;;;174.77;74.00;;;;;;;-2.48;73.96;100782.56;4998080;28;20128;-74
2022/03/03 02:12:19;;;;;;;164.20;74.28;;;;;;;-2.48;73.36;100779.78;4997948;28;20129;-74
2022/03/03 02:14:46;;;;;;;162.93;72.82;;;;;;;-2.47;73.56;100767.44;5015458;28;20033;-73
2022/03/03 02:17:17;;;;;;;186.00;77.68;;;;;;;-2.48;73.36;100763.03;4981589;28;20430;-74
2022/03/03 02:19:42;;;;;;;172.95;74.55;;;;;;;-2.44;73.00;100752.72;4981982;28;20058;-75
2022/03/03 02:22:09;;;;;;;157.75;70.78;;;;;;;-2.41;72.53;100755.53;4998058;28;20120;-75
2022/03/03 02:24:38;;;;;;;169.75;72.20;;;;;;;-2.38;73.14;100743.66;4997707;28;20026;-74
2022/03/03 02:27:05;;;;;;;174.32;75.00;;;;;;;-2.37;73.40;100744.47;4997869;28;20486;-73
2022/03/03 02:29:32;;;;;;;166.27;72.78;;;;;;;-2.43;73.62;100741.19;4981122;28;20040;-75
2022/03/03 02:31:59;;;;;;;171.65;76.57;;;;;;;-2.45;73.81;100746.34;5014151;28;20076;-74
2022/03/03 02:34:24;;;;;;;171.77;77.88;;;;;;;-2.50;73.67;100743.88;4964425;28;20100;-74
2022/03/03 02:36:56;;;;;;;171.02;75.38;;;;;;;-2.48;73.95;100737.94;5013884;28;20030;-75
2022/03/03 02:39:21;;;;;;;164.95;73.50;;;;;;;-2.50;73.84;100734.72;4996463;28;20080;-74
2022/03/03 02:41:47;;;;;;;174.52;74.57;;;;;;;-2.56;73.63;100725.88;5013865;28;20022;-74
2022/03/03 02:44:14;;;;;;;166.57;75.15;;;;;;;-2.52;74.29;100737.09;4996244;28;20026;-75
2022/03/03 02:46:44;;;;;;;181.88;73.28;;;;;;;-2.56;74.59;100739.81;4980163;28;20036;-74
2022/03/03 02:49:10;;;;;;;171.48;73.95;;;;;;;-2.63;74.12;100728.59;4996452;28;20018;-74
2022/03/03 02:51:36;;;;;;;172.85;73.78;;;;;;;-2.65;74.24;100737.34;4996717;28;20025;-73
2022/03/03 02:54:02;;;;;;;176.05;76.63;;;;;;;-2.68;74.64;100729.75;4997296;28;20036;-75
2022/03/03 02:56:30;;;;;;;169.88;76.57;;;;;;;-2.73;74.43;100726.47;4997460;28;20026;-75
2022/03/03 02:58:56;;;;;;;179.38;75.28;;;;;;;-2.72;74.76;100728.91;4997021;28;20490;-75
2022/03/03 03:01:22;;;;;;;181.43;75.68;;;;;;;-2.73;74.77;100727.28;4997181;28;20045;-74
2022/03/03 03:03:49;;;;;;;169.52;72.93;;;;;;;-2.72;74.80;100728.09;5013303;28;20033;-75
2022/03/03 03:06:16;;;;;;;168.27;73.82;;;;;;;-2.71;75.12;100732.47;4996611;28;20037;-74
2022/03/03 03:08:42;;;;;;;175.13;73.28;;;;;;;-2.70;75.12;100732.09;4980763;28;20562;-74
2022/03/03 03:11:08;;;;;;;168.25;75.18;;;;;;;-2.69;74.67;100727.31;4996884;28;20022;-74
2022/03/03 03:13:35;;;;;;;174.70;76.72;;;;;;;-2.71;75.08;100729.69;4981080;28;20407;-75
2022/03/03 03:16:01;;;;;;;175.13;77.15;;;;;;;-2.73;74.87;100727.28;4996878;28;20518;-73
2022/03/03 03:18:26;;;;;;;175.32;74.43;;;;;;;-2.76;75.52;100716.88;5013035;28;20062;-74
2022/03/03 03:20:53;;;;;;;168.07;72.57;;;;;;;-2.75;75.47;100718.50;4996738;28;20502;-74
2022/03/03 03:23:22;;;;;;;171.90;73.30;;;;;;;-2.71;74.99;100710.16;4996865;28;20125;-73
2022/03/03 03:25:49;;;;;;;167.80;75.90;;;;;;;-2.69;74.58;100710.59;4980863;28;20052;-75
2022/03/03 03:28:21;;;;;;;161.35;70.18;;;;;;;-2.64;74.50;100704.69;5014241;28;20029;-73
2022/03/03 03:31:04;;;;;;;172.15;76.47;;;;;;;-2.71;75.04;100693.44;5014106;28;20068;-74
2022/03/03 03:33:30;;;;;;;173.03;76.00;;;;;;;-2.62;75.27;100703.16;5013292;28;20048;-74
2022/03/03 03:35:56;;;;;;;182.38;78.10;;;;;;;-2.59;75.13;100704.34;5014120;28;20280;-75
2022/03/03 03:38:21;;;;;;;179.88;76.18;;;;;;;-2.55;75.27;100693.25;5013592;28;20126;-74
2022/03/03 03:40:47;;;;;;;170.60;75.97;;;;;;;-2.44;75.10;100694.97;5012866;28;20456;-74
2022/03/03 03:43:12;;;;;;;172.48;77.22;;;;;;;-2.29;74.45;100693.13;4995960;28;20475;-75
2022/03/03 03:45:40;;;;;;;176.32;77.70;;;;;;;-2.16;74.49;100688.88;4996226;28;20527;-75
2022/03/03 03:48:06;;;;;;;174.63;75.40;;;;;;;-2.01;74.53;100698.19;4996462;28;20462;-74
2022/03/03 03:50:31;;;;;;;175.45;76.10;;;;;;;-1.92;74.46;100688.31;4980035;28;20037;-74
2022/03/03 03:52:56;;;;;;;173.05;77.15;;;;;;;-1.74;73.98;100688.47;5013701;28;20172;-74
2022/03/03 03:55:21;;;;;;;170.70;72.13;;;;;;;-1.62;73.70;100688.16;5013718;28;20030;-75
2022/03/03 03:57:47;;;;;;;168.55;74.57;;;;;;;-1.53;73.94;100687.84;5013637;28;20064;-74
2022/03/03 04:00:14;;;;;;;163.55;71.03;;;;;;;-1.45;73.22;100681.94;4996104;28;20136;-73
2022/03/03 04:02:46;;;;;;;165.40;71.80;;;;;;;-1.38;73.07;100681.16;4996120;28;20494;-75
2022/03/03 04:05:13;;;;;;;169.93;71.70;;;;;;;-1.31;73.13;100678.41;4976962;28;20033;-73
2022/03/03 04:07:40;;;;;;;157.18;70.13;;;;;;;-1.24;72.90;100670.09;4992582;28;20138;-75
2022/03/03 04:10:06;;;;;;;157.00;68.47;;;;;;;-1.10;72.46;100677.75;4994019;28;20037;-74
2022/03/03 04:12:32;;;;;;;156.55;71.40;;;;;;;-1.13;72.27;100658.94;4992871;28;20034;-73
2022/03/03 04:14:57;;;;;;;158.07;68.30;;;;;;;-0.93;71.98;100677.03;4994306;28;20022;-74
2022/03/03 04:17:29;;;;;;;159.60;67.40;;;;;;;-0.84;71.76;100671.09;4991934;28;20089;-74
2022/03/03 04:19:55;;;;;;;;;;;;;;;-0.81;71.44;100670.31;4992925;28;20546;-74
2022/03/03 04:22:20;;;;;;;157.38;67.60;;;;;;;-0.79;71.80;100665.13;4992759;28;19914;-75
2022/03/03 04:24:45;;;;;;;162.50;72.07;;;;;;;-0.72;71.29;100665.94;4992788;28;20084;-74
2022/03/03 04:27:14;;;;;;;158.05;68.13;;;;;;;-0.69;71.29;100658.78;4991335;28;20041;-73
2022/03/03 04:29:45;;;;;;;163.30;69.38;;;;;;;-0.62;71.09;100664.38;4991316;28;20118;-73
2022/03/03 04:32:11;;;;;;;150.85;68.80;;;;;;;-0.61;70.53;100663.19;4993219;28;20463;-73
2022/03/03 04:34:37;;;;;;;146.55;68.90;;;;;;;-0.52;70.72;100666.41;4994412;28;20037;-74
2022/03/03 04:37:03;;;;;;;149.15;68.38;;;;;;;-0.50;70.28;100653.66;4995134;28;20113;-73
2022/03/03 04:39:31;;;;;;;161.23;67.47;;;;;;;-0.40;70.12;100654.06;4994782;28;20111;-73
2022/03/03 04:41:58;;;;;;;154.82;66.40;;;;;;;-0.30;69.34;100642.09;4992401;28;20050;-74
2022/03/03 04:44:23;;;;;;;156.75;68.40;;;;;;;-0.27;69.27;100644.09;4992642;28;20031;-75
2022/03/03 04:46:49;;;;;;;151.77;64.93;;;;;;;-0.19;68.78;100629.72;4993627;28;20035;-74
2022/03/03 04:49:15;;;;;;;156.63;64.72;;;;;;;-0.05;68.17;100628.94;4992223;28;20026;-74
2022/03/03 04:51:42;;;;;;;154.57;67.65;;;;;;;-0.16;68.07;100633.72;4992641;28;20080;-74
2022/03/03 04:54:09;;;;;;;162.13;68.28;;;;;;;-0.25;68.62;100627.72;4994677;28;20478;-74
2022/03/03 04:56:37;;;;;;;146.68;63.35;;;;;;;-0.27;68.26;100619.72;4997452;28;20035;-74
2022/03/03 04:59:04;;;;;;;158.95;67.72;;;;;;;-0.27;68.56;100628.09;4980122;28;20499;-75
2022/03/03 05:01:29;;;;;;;172.25;66.40;;;;;;;-0.27;68.92;100628.09;4980342;28;20037;-75
2022/03/03 05:03:55;;;;;;;163.90;69.53;;;;;;;-0.30;69.03;100633.72;4995590;28;20121;-75
2022/03/03 05:06:21;;;;;;;160.73;68.35;;;;;;;-0.23;68.27;100636.50;4997939;28;20056;-74
2022/03/03 05:08:47;;;;;;;160.75;69.85;;;;;;;-0.28;68.71;100639.69;4998407;28;20092;-74
2022/03/03 05:11:12;;;;;;;156.48;69.45;;;;;;;-0.34;68.73;100632.88;5014491;28;20435;-73
2022/03/03 05:13:39;;;;;;;170.60;65.72;;;;;;;-0.30;69.56;100642.09;5016551;28;20030;-74
2022/03/03 05:16:05;;;;;;;165.85;69.47;;;;;;;-0.32;69.34;100641.69;5016851;28;20444;-74
2022/03/03 05:18:33;;;;;;;148.73;67.47;;;;;;;-0.27;69.53;100641.28;5015550;28;20079;-74
2022/03/03 05:20:58;;;;;;;151.50;66.45;;;;;;;-0.24;69.36;100632.09;5015243;28;20037;-73
2022/03/03 05:23:23;;;;;;;140.15;64.32;;;;;;;-0.22;69.42;100635.31;5015833;28;20034;-75
2022/03/03 05:25:51;;;;;;;148.05;64.00;;;;;;;-0.24;69.00;100641.28;4981678;28;20041;-76
2022/03/03 05:28:16;;;;;;;152.05;63.42;;;;;;;-0.19;68.90;100642.91;4965254;28;20483;-76
2022/03/03 05:30:44;;;;;;;146.65;63.92;;;;;;;-0.16;69.16;100639.31;4998057;28;20033;-75
2022/03/03 05:33:11;;;;;;;146.63;66.05;;;;;;;-0.16;69.03;100645.72;5016353;28;20034;-75
2022/03/03 05:35:40;;;;;;;153.48;64.90;;;;;;;-0.13;68.87;100641.31;4982818;28;20034;-75
2022/03/03 05:38:07;;;;;;;150.95;66.70;;;;;;;-0.09;68.81;100647.72;4998783;28;20128;-74
2022/03/03 05:40:33;;;;;;;157.50;69.28;;;;;;;-0.08;68.95;100635.31;4998344;28;20030;-76
2022/03/03 05:43:00;;;;;;;149.40;64.57;;;;;;;-0.06;69.11;100636.53;4998431;28;20026;-74
2022/03/03 05:45:32;;;;;;;142.13;64.70;;;;;;;0.00;68.82;100648.91;4998999;28;20109;-73
2022/03/03 05:48:00;;;;;;;154.43;67.40;;;;;;;0.04;68.57;100634.94;4998857;28;20030;-75
2022/03/03 05:50:29;;;;;;;145.60;66.38;;;;;;;0.09;68.85;100634.53;4994943;28;20507;-73
2022/03/03 05:53:16;;;;;;;156.20;64.78;;;;;;;0.16;68.62;100630.91;5017949;28;20022;-74
2022/03/03 05:56:09;;;;;;;147.45;64.72;;;;;;;0.23;68.19;100628.13;5016968;28;20040;-72
2022/03/03 05:58:49;;;;;;;141.48;62.83;;;;;;;0.27;68.12;100623.31;5015193;28;20029;-72
2022/03/03 06:01:16;;;;;;;141.35;61.78;;;;;;;0.37;67.04;100626.13;5037921;28;20116;-74
2022/03/03 06:03:46;;;;;;;143.02;62.35;;;;;;;0.35;67.45;100619.31;5034193;28;20033;-73
2022/03/03 06:06:16;;;;;;;137.02;64.25;;;;;;;0.37;67.21;100626.13;5016464;28;20088;-72
2022/03/03 06:09:02;;;;;;;141.75;63.78;;;;;;;0.42;67.24;100617.31;5020886;28;20030;-72
2022/03/03 06:11:27;;;;;;;144.18;60.97;;;;;;;0.44;66.87;100611.31;5028328;28;20136;-73
2022/03/03 06:14:04;;;;;;;137.55;63.17;;;;;;;0.38;67.15;100604.50;4997904;28;20113;-73
2022/03/03 06:16:39;;;;;;;137.00;62.88;;;;;;;0.43;66.97;100616.13;4997579;28;20041;-74
2022/03/03 06:19:08;;;;;;;144.48;65.28;;;;;;;0.40;67.01;100605.69;5013752;28;20121;-73
2022/03/03 06:21:34;;;;;;;158.77;66.30;;;;;;;0.57;66.75;100606.88;4997175;28;20037;-74
2022/03/03 06:23:59;;;;;;;143.20;60.28;;;;;;;0.58;67.00;100607.69;4978684;28;20034;-73
2022/03/03 06:26:26;;;;;;;144.85;61.72;;;;;;;0.64;66.90;100609.63;4990624;28;20049;-71
2022/03/03 06:28:53;;;;;;;135.45;60.55;;;;;;;0.70;66.57;100605.22;4997116;28;20224;-80
2022/03/03 06:31:20;;;;;;;125.78;62.50;;;;;;;0.77;66.55;100608.03;4993272;28;20479;-78
2022/03/03 06:33:47;;;;;;;137.25;57.50;;;;;;;0.86;66.59;100613.19;4997476;28;20046;-77
2022/03/03 06:36:19;;;;;;;121.22;57.50;;;;;;;0.98;66.11;100606.34;5014920;28;20478;-79
2022/03/03 06:38:45;;;;;;;125.30;56.08;;;;;;;0.95;65.75;100613.56;5015234;28;20033;-78
2022/03/03 06:41:11;;;;;;;127.95;60.33;;;;;;;0.93;65.84;100613.19;5016272;28;20057;-78
2022/03/03 06:43:41;;;;;;;125.18;52.78;;;;;;;1.03;66.12;100611.53;5015335;28;20026;-78
2022/03/03 06:46:08;;;;;;;121.20;53.95;;;;;;;1.12;66.04;100601.50;5015185;28;20056;-78
2022/03/03 06:48:35;;;;;;;117.75;51.40;;;;;;;1.26;64.75;100606.22;5014797;28;20033;-79
2022/03/03 06:51:17;;;;;;;116.10;51.25;;;;;;;1.26;64.75;100607.03;4981451;28;20033;-78
2022/03/03 06:53:45;;;;;;;112.20;51.00;;;;;;;1.32;64.40;100613.00;4997916;28;20037;-76
2022/03/03 06:56:12;;;;;;;120.32;51.92;;;;;;;1.40;64.25;100611.75;4980869;28;20112;-74
2022/03/03 06:58:39;;;;;;;124.22;49.90;;;;;;;1.45;64.62;100608.53;5014819;28;20101;-73
2022/03/03 07:01:12;;;;;;;111.90;50.50;;;;;;;1.59;64.37;100600.00;4980680;28;20038;-72
2022/03/03 07:03:41;;;;;;;101.97;46.65;;;;;;;1.86;63.32;100616.28;4981729;28;20087;-75
2022/03/03 07:06:08;;;;;;;99.93;43.85;;;;;;;1.92;62.93;100609.03;5013965;28;20041;-74
2022/03/03 07:08:38;;;;;;;99.50;46.95;;;;;;;1.96;63.30;100604.19;4996855;28;20459;-73
2022/03/03 07:11:09;;;;;;;92.22;44.63;;;;;;;2.06;62.02;100595.66;5012822;28;20113;-75
2022/03/03 07:13:38;;;;;;;94.50;45.83;;;;;;;2.21;61.20;100595.53;4992990;28;20500;-73
2022/03/03 07:16:37;;;;;;;129.27;48.78;;;;;;;2.21;61.24;100596.34;4980423;28;20085;-72
2022/03/03 07:19:05;;;;;;;94.60;44.10;;;;;;;2.28;61.41;100609.50;5000016;28;20032;-75
2022/03/03 07:22:19;;;;;;;101.30;46.15;;;;;;;2.43;61.58;100608.97;4986023;28;20034;-78
2022/03/03 07:25:06;;;;;;;95.45;44.10;;;;;;;2.61;60.85;100603.97;5017134;28;20041;-82
2022/03/03 07:27:34;;;;;;;95.93;47.03;;;;;;;2.67;60.56;100604.31;5015445;28;20026;-79
2022/03/03 07:30:08;;;;;;;95.63;44.53;;;;;;;2.75;60.68;100611.47;4982186;28;20050;-73
2022/03/03 07:32:40;;;;;;;95.80;45.35;;;;;;;2.87;60.48;100605.28;5019412;28;20026;-81
2022/03/03 07:35:09;;;;;;;108.78;47.63;;;;;;;3.00;60.07;100606.38;5005221;28;20038;-82
2022/03/03 07:38:05;;;;;;;112.68;46.97;;;;;;;3.18;58.93;100611.75;5018078;28;20033;-78
2022/03/03 07:40:32;;;;;;;100.55;43.60;;;;;;;3.35;59.61;100616.38;5021216;28;20038;-78
2022/03/03 07:42:59;;;;;;;97.40;45.10;;;;;;;3.52;58.73;100608.09;5005248;28;20109;-78
2022/03/03 07:45:28;;;;;;;92.18;43.58;;;;;;;3.65;58.24;100609.91;5014665;28;20028;-78
2022/03/03 07:47:56;;;;;;;108.78;42.67;;;;;;;3.79;58.55;100615.34;4998085;28;20038;-80
2022/03/03 07:50:42;;;;;;;99.85;45.22;;;;;;;3.88;56.96;100598.72;5011379;28;20087;-80
2022/03/03 07:53:11;;;;;;;93.78;42.40;;;;;;;4.05;57.22;100599.63;5015412;28;20395;-80
2022/03/03 07:56:01;;;;;;;96.07;42.67;;;;;;;4.19;55.93;100610.66;4985692;28;20050;-79
2022/03/03 07:58:30;;;;;;;96.05;43.60;;;;;;;4.28;56.88;100613.75;5015433;28;20038;-80
2022/03/03 08:00:59;;;;;;;89.38;42.92;;;;;;;4.41;56.38;100599.84;4984393;28;20040;-79
2022/03/03 08:03:26;;;;;;;89.55;43.58;;;;;;;4.48;55.65;100622.28;5001112;28;20052;-79
2022/03/03 08:06:13;;;;;;;97.35;41.35;;;;;;;4.48;54.35;100604.56;4969698;28;20034;-79
2022/03/03 08:08:41;;;;;;;91.30;43.17;;;;;;;4.62;55.14;100605.09;4989102;28;20055;-80
2022/03/03 08:11:09;;;;;;;102.10;43.08;;;;;;;4.73;55.66;100610.53;4978180;28;20061;-81
2022/03/03 08:13:36;;;;;;;88.43;44.05;;;;;;;4.88;54.76;100608.25;4963671;28;20198;-80
2022/03/03 08:16:03;;;;;;;92.60;42.17;;;;;;;5.02;54.10;100602.31;4980665;28;20026;-75
2022/03/03 08:18:49;;;;;;;88.03;41.90;;;;;;;5.13;53.12;100597.25;4973189;28;20468;-74
2022/03/03 08:21:17;;;;;;;90.40;43.55;;;;;;;5.17;53.56;100598.78;4971179;28;20050;-75
2022/03/03 08:24:00;;;;;;;93.15;42.40;;;;;;;5.29;53.12;100605.78;4971195;28;20034;-75
2022/03/03 08:26:32;;;;;;;85.75;40.33;;;;;;;5.45;52.80;100596.56;4973279;28;20102;-73
2022/03/03 08:28:58;;;;;;;79.32;38.80;;;;;;;5.56;52.53;100605.59;4975025;28;20118;-76
2022/03/03 08:31:32;;;;;;;92.03;41.00;;;;;;;5.75;51.21;100606.78;4978287;28;20109;-75
2022/03/03 08:34:12;;;;;;;85.97;40.50;;;;;;;5.99;51.66;100602.59;4960702;28;20046;-76
2022/03/03 08:36:53;;;;;;;92.90;42.70;;;;;;;6.34;50.43;100601.75;4961665;28;20053;-73
2022/03/03 08:39:28;;;;;;;85.03;40.33;;;;;;;6.59;50.47;100600.28;4976679;28;20047;-76
2022/03/03 08:42:17;;;;;;;86.93;42.25;;;;;;;6.68;49.34;100603.28;4977937;28;20031;-79
2022/03/03 08:44:43;;;;;;;89.88;40.83;;;;;;;6.59;49.81;100601.09;4985823;28;20476;-74
2022/03/03 08:47:17;;;;;;;86.60;41.42;;;;;;;6.45;48.81;100605.09;4976262;28;20019;-76
2022/03/03 08:49:49;;;;;;;81.28;42.00;;;;;;;6.29;50.05;100601.47;4961756;28;20034;-77
2022/03/03 08:52:16;;;;;;;83.57;42.08;;;;;;;6.13;49.77;100593.78;4945407;28;20027;-72
2022/03/03 08:54:43;;;;;;;84.15;39.88;;;;;;;5.94;50.04;100600.31;4976732;28;20054;-73
2022/03/03 08:57:09;;;;;;;83.47;39.38;;;;;;;5.84;50.69;100596.47;4983024;28;20034;-79
2022/03/03 08:59:37;;;;;;;88.72;39.55;;;;;;;5.79;50.54;100594.16;4978334;28;20046;-77
2022/03/03 09:02:05;;;;;;;83.88;40.40;;;;;;;6.02;51.62;100588.38;4980665;28;20049;-77
2022/03/03 09:04:31;;;;;;;70.38;38.25;;;;;;;6.72;49.84;100587.00;4993087;28;20101;-74
2022/03/03 09:06:58;;;;;;;78.43;38.50;;;;;;;7.20;49.94;100581.16;5000717;28;20089;-74
2022/03/03 09:09:24;;;;;;;78.55;37.03;;;;;;;7.81;49.00;100575.25;5016300;28;20026;-75
2022/03/03 09:12:04;;;;;;;73.05;35.10;;;;;;;8.34;46.79;100572.72;4998012;28;20034;-76
2022/03/03 09:14:30;;;;;;;76.05;37.80;;;;;;;8.57;46.30;100572.34;5029355;28;20038;-74
2022/03/03 09:17:00;;;;;;;78.18;37.97;;;;;;;8.82;44.61;100574.28;5017926;28;20025;-74
2022/03/03 09:19:26;;;;;;;81.22;40.83;;;;;;;9.07;45.41;100573.38;5001684;28;20429;-75
2022/03/03 09:21:52;;;;;;;75.82;37.05;;;;;;;9.19;45.20;100569.66;5018917;28;20025;-76
2022/03/03 09:24:18;;;;;;;64.45;35.28;;;;;;;9.37;44.34;100566.19;5017745;28;20028;-77
2022/03/03 09:26:43;;;;;;;64.93;33.60;;;;;;;9.76;41.87;100564.63;5002111;28;20038;-75
2022/03/03 09:29:08;;;;;;;61.95;33.40;;;;;;;9.76;42.56;100558.94;5035231;28;20083;-76
2022/03/03 09:31:37;;;;;;;59.03;32.28;;;;;;;9.90;42.22;100550.63;5017196;28;20026;-76
2022/03/03 09:34:02;;;;;;;70.78;35.45;;;;;;;10.10;41.53;100547.38;5035324;28;20517;-75
2022/03/03 09:36:29;;;;;;;66.10;31.73;;;;;;;10.34;41.37;100545.56;5036068;28;20451;-77
2022/03/03 09:38:57;;;;;;;73.88;35.92;;;;;;;10.56;39.57;100536.88;5033836;28;20045;-75
2022/03/03 09:41:30;;;;;;;57.92;31.08;;;;;;;10.57;39.74;100540.53;5034440;28;20036;-74
2022/03/03 09:43:57;;;;;;;60.45;31.13;;;;;;;10.67;39.52;100548.59;5017482;28;20041;-77
2022/03/03 09:46:23;;;;;;;59.00;31.25;;;;;;;10.84;38.78;100534.84;5017319;28;20117;-76
2022/03/03 09:48:49;;;;;;;66.57;33.78;;;;;;;11.02;38.12;100542.59;5036177;28;20061;-78
2022/03/03 09:51:16;;;;;;;58.80;31.23;;;;;;;11.24;39.04;100535.44;5035694;28;20029;-74
2022/03/03 09:53:42;;;;;;;64.25;31.48;;;;;;;11.46;37.84;100534.41;5034827;28;20033;-74
2022/03/03 09:56:08;;;;;;;68.63;32.15;;;;;;;11.57;37.30;100526.16;5016149;28;20037;-72
2022/03/03 09:58:35;;;;;;;60.88;32.15;;;;;;;11.63;37.48;100532.78;5034474;28;20118;-74
2022/03/03 10:01:05;;;;;;;62.13;31.33;;;;;;;11.70;36.45;100532.44;5035662;28;20026;-73
2022/03/03 10:03:32;;;;;;;58.75;32.33;;;;;;;11.63;36.76;100535.66;5017672;28;20398;-73
2022/03/03 10:06:00;;;;;;;66.50;32.35;;;;;;;11.67;36.06;100548.47;5022897;28;20037;-77
2022/03/03 10:08:31;;;;;;;58.00;31.15;;;;;;;11.63;35.60;100536.44;5035571;28;20053;-79
2022/03/03 10:11:03;;;;;;;69.03;32.67;;;;;;;11.59;34.63;100540.75;5018843;28;20064;-77
2022/03/03 10:14:06;;;;;;;57.55;29.40;;;;;;;11.64;33.49;100537.22;5019031;28;20102;-78
2022/03/03 10:16:32;;;;;;;56.83;28.27;;;;;;;11.74;33.96;100535.97;5035235;28;20104;-78
2022/03/03 10:19:18;;;;;;;50.88;29.92;;;;;;;11.67;33.38;100536.25;5035690;28;20438;-78
2022/03/03 10:21:45;;;;;;;54.33;29.63;;;;;;;11.76;34.53;100533.41;5033802;28;20116;-77
2022/03/03 10:24:30;;;;;;;62.85;28.40;;;;;;;11.87;32.56;100530.81;5035119;28;20035;-78
2022/03/03 10:27:05;;;;;;;52.72;26.35;;;;;;;11.82;33.01;100530.69;5035563;28;20033;-79
2022/03/03 10:29:33;;;;;;;57.78;26.83;;;;;;;11.81;33.01;100532.75;5034989;28;20398;-77
2022/03/03 10:32:02;;;;;;;56.22;28.33;;;;;;;11.79;33.25;100531.66;5017454;28;20455;-78
2022/03/03 10:34:37;;;;;;;57.55;27.63;;;;;;;11.79;32.82;100532.41;5017653;28;20112;-77
2022/03/03 10:37:06;;;;;;;52.60;28.02;;;;;;;11.76;33.40;100530.53;5035015;28;20033;-74
2022/03/03 10:39:50;;;;;;;51.22;28.48;;;;;;;11.78;32.43;100528.00;5034089;28;20033;-75
2022/03/03 10:42:18;;;;;;;50.00;27.02;;;;;;;11.77;33.36;100517.06;5002360;28;20057;-78
2022/03/03 10:45:07;;;;;;;51.50;27.20;;;;;;;11.75;33.60;100517.53;5035307;28;20040;-76
2022/03/03 10:47:34;;;;;;;50.85;27.13;;;;;;;11.69;32.79;100523.09;5017212;28;20467;-75
2022/03/03 10:50:03;;;;;;;47.17;24.75;;;;;;;11.78;32.32;100519.44;5033672;28;20101;-76
2022/03/03 10:52:44;;;;;;;49.25;24.50;;;;;;;11.49;32.70;100517.16;5033878;28;20033;-77
2022/03/03 10:55:17;;;;;;;51.00;26.98;;;;;;;11.29;32.49;100501.84;5035321;28;20064;-72
2022/03/03 10:57:48;;;;;;;48.28;24.70;;;;;;;11.25;33.46;100510.53;5035258;28;20083;-74
2022/03/03 11:00:36;;;;;;;47.28;26.92;;;;;;;11.22;33.62;100509.44;5034445;28;20029;-76
2022/03/03 11:03:04;;;;;;;53.95;26.85;;;;;;;11.11;32.69;100514.06;5034135;28;20040;-74
2022/03/03 11:05:32;;;;;;;48.13;27.10;;;;;;;11.00;32.45;100499.53;5033934;28;20504;-76
2022/03/03 11:07:58;;;;;;;48.58;27.88;;;;;;;10.99;34.54;100510.13;5031287;28;20053;-73
2022/03/03 11:10:39;;;;;;;52.05;24.50;;;;;;;11.02;35.59;100485.56;5015861;28;20045;-78
2022/03/03 11:13:21;;;;;;;58.40;26.90;;;;;;;11.13;32.76;100492.38;5027386;28;20041;-76
2022/03/03 11:15:48;;;;;;;50.40;26.83;;;;;;;11.03;34.45;100492.88;5034399;28;20033;-73